Time;durP1;ratioP1;P1;durP2;ratioP2;P2;SDS_P1;SDS_P2;PMS_P1;PMS_P2;Temp;Humidity;BMP_temperature;BMP_pressure;BME280_temperature;BME280_humidity;BME280_pressure;Samples;Min_cycle;Max_cycle;Signal;HPM_P1;HPM_P2
2022/07/15 00:01:59;;;;;;;3.50;2.73;;;20.20;61.30;;;;;;5022540;28;20627;-80
2022/07/15 00:04:27;;;;;;;2.50;1.80;;;20.20;61.00;;;;;;5026548;28;20642;-80
2022/07/15 00:06:54;;;;;;;2.30;2.10;;;20.20;61.00;;;;;;5025369;28;20671;-80
2022/07/15 00:10:13;;;;;;;3.20;2.00;;;20.10;61.00;;;;;;5026835;28;20633;-81
2022/07/15 00:12:09;;;;;;;4.90;2.20;;;20.10;61.20;;;;;;5026383;28;20694;-81
2022/07/15 00:14:36;;;;;;;2.30;1.77;;;20.10;61.90;;;;;;5026106;28;21000;-80
2022/07/15 00:17:03;;;;;;;2.77;1.87;;;20.10;61.60;;;;;;5026652;28;20635;-79
2022/07/15 00:19:31;;;;;;;3.73;2.33;;;20.00;61.60;;;;;;5026228;28;20625;-80
2022/07/15 00:21:58;;;;;;;3.90;1.87;;;20.00;62.30;;;;;;5025991;28;20627;-80
2022/07/15 00:24:24;;;;;;;3.93;2.27;;;19.90;62.80;;;;;;5028127;28;20638;-80
2022/07/15 00:26:51;;;;;;;4.60;2.73;;;19.90;62.70;;;;;;5028646;28;20678;-80
2022/07/15 00:29:18;;;;;;;3.50;2.13;;;19.80;62.40;;;;;;5027714;28;20631;-80
2022/07/15 00:31:45;;;;;;;2.20;1.60;;;19.70;63.40;;;;;;5026910;28;20633;-80
2022/07/15 00:34:12;;;;;;;1.97;1.60;;;19.60;63.30;;;;;;5025380;28;20626;-80
2022/07/15 00:36:40;;;;;;;3.23;2.00;;;19.60;63.30;;;;;;5025579;28;20626;-80
2022/07/15 00:39:07;;;;;;;5.10;2.87;;;19.60;63.00;;;;;;5025439;28;20646;-80
2022/07/15 00:41:37;;;;;;;2.53;2.10;;;19.60;62.90;;;;;;5023541;28;21225;-80
2022/07/15 00:44:04;;;;;;;2.87;2.10;;;19.50;62.90;;;;;;5028044;28;20668;-81
2022/07/15 00:46:32;;;;;;;4.10;2.00;;;19.60;63.00;;;;;;5025380;28;20663;-80
2022/07/15 00:48:59;;;;;;;2.50;1.90;;;19.50;63.10;;;;;;5025637;28;20666;-80
2022/07/15 00:51:27;;;;;;;2.53;2.33;;;19.50;63.30;;;;;;5027667;28;20647;-82
2022/07/15 00:53:56;;;;;;;3.30;2.00;;;19.50;63.20;;;;;;5024596;28;20854;-79
2022/07/15 00:56:26;;;;;;;4.70;2.00;;;19.50;63.60;;;;;;5025566;28;20661;-80
2022/07/15 00:58:53;;;;;;;2.47;1.90;;;19.40;63.80;;;;;;5025179;28;20635;-80
2022/07/15 01:01:20;;;;;;;3.20;2.37;;;19.40;63.90;;;;;;5026432;28;20665;-81
2022/07/15 01:03:49;;;;;;;4.53;1.70;;;19.30;63.90;;;;;;5030141;28;20635;-81
2022/07/15 01:06:16;;;;;;;1.93;1.70;;;19.30;64.50;;;;;;5031508;28;20627;-80
2022/07/15 01:08:43;;;;;;;1.93;1.80;;;19.30;64.40;;;;;;5029306;28;20631;-80
2022/07/15 01:11:13;;;;;;;2.37;1.93;;;19.20;64.60;;;;;;5029826;28;20654;-80
2022/07/15 01:13:40;;;;;;;2.97;1.80;;;19.20;64.60;;;;;;5027959;28;20622;-81
2022/07/15 01:16:07;;;;;;;2.17;1.90;;;19.20;64.70;;;;;;5027743;28;20646;-80
2022/07/15 01:18:34;;;;;;;2.63;2.00;;;19.10;65.60;;;;;;5036699;28;20629;-80
2022/07/15 01:21:02;;;;;;;2.30;2.10;;;19.10;65.20;;;;;;5036238;28;20650;-81
2022/07/15 01:23:28;;;;;;;2.57;1.97;;;19.00;65.80;;;;;;5029323;28;21177;-80
2022/07/15 01:25:56;;;;;;;2.80;1.77;;;19.00;66.10;;;;;;5029123;28;20631;-79
2022/07/15 01:28:23;;;;;;;2.23;1.80;;;18.80;71.10;;;;;;5026266;28;20677;-80
2022/07/15 01:30:50;;;;;;;5.73;1.77;;;18.60;72.40;;;;;;5026851;28;21018;-80
2022/07/15 01:33:16;;;;;;;2.40;1.97;;;18.50;73.70;;;;;;5026165;28;20641;-80
2022/07/15 01:35:43;;;;;;;3.17;2.73;;;18.40;75.90;;;;;;5029249;28;20638;-80
2022/07/15 01:38:11;;;;;;;3.37;1.87;;;18.30;76.30;;;;;;5026117;28;20625;-80
2022/07/15 01:40:38;;;;;;;2.13;1.90;;;18.20;76.40;;;;;;5025685;28;20662;-80
2022/07/15 01:43:05;;;;;;;1.97;1.77;;;18.00;77.50;;;;;;5027535;28;20639;-80
2022/07/15 01:45:32;;;;;;;2.50;1.97;;;18.00;78.10;;;;;;5028797;28;22051;-80
2022/07/15 01:47:59;;;;;;;2.80;1.83;;;18.00;79.20;;;;;;5026679;28;20666;-80
2022/07/15 01:50:26;;;;;;;1.93;1.73;;;17.80;80.40;;;;;;5026194;28;21316;-80
2022/07/15 01:52:52;;;;;;;3.70;2.20;;;17.70;81.60;;;;;;5029137;28;20637;-80
2022/07/15 01:55:21;;;;;;;2.07;1.97;;;17.60;82.80;;;;;;5026686;28;20626;-80
2022/07/15 01:57:48;;;;;;;5.43;2.30;;;17.50;83.50;;;;;;5029302;28;21097;-80
2022/07/15 02:00:16;;;;;;;1.67;1.57;;;17.40;84.40;;;;;;5025308;28;21311;-80
2022/07/15 02:02:43;;;;;;;2.70;2.20;;;17.30;86.00;;;;;;5027419;28;20634;-80
2022/07/15 02:05:10;;;;;;;3.30;2.10;;;17.20;88.30;;;;;;5026148;28;20626;-80
2022/07/15 02:07:38;;;;;;;2.30;2.10;;;17.20;89.50;;;;;;5026829;28;20670;-80
2022/07/15 02:10:06;;;;;;;2.13;1.80;;;17.10;89.80;;;;;;5027615;28;20662;-80
2022/07/15 02:12:34;;;;;;;2.57;1.73;;;17.00;90.30;;;;;;5023872;28;20630;-80
2022/07/15 02:15:01;;;;;;;4.73;2.00;;;17.10;91.30;;;;;;5026147;28;20631;-80
2022/07/15 02:17:28;;;;;;;3.10;2.37;;;16.90;91.80;;;;;;5027573;28;20714;-80
2022/07/15 02:19:54;;;;;;;3.50;2.00;;;16.80;92.40;;;;;;5028786;28;20654;-80
2022/07/15 02:22:21;;;;;;;2.50;1.90;;;16.70;92.50;;;;;;5028593;28;20626;-79
2022/07/15 02:24:48;;;;;;;3.33;2.20;;;16.60;92.80;;;;;;5028773;28;20626;-80
2022/07/15 02:27:15;;;;;;;3.43;2.27;;;16.70;93.00;;;;;;5029201;28;20675;-79
2022/07/15 02:29:43;;;;;;;4.30;2.03;;;16.60;93.20;;;;;;5026576;28;20668;-79
2022/07/15 02:32:10;;;;;;;3.53;1.70;;;16.50;93.40;;;;;;5024642;28;20615;-80
2022/07/15 02:34:36;;;;;;;2.57;1.83;;;16.50;93.20;;;;;;5025629;28;20638;-80
2022/07/15 02:37:03;;;;;;;4.00;2.20;;;16.50;93.50;;;;;;5025914;28;20626;-79
2022/07/15 02:39:30;;;;;;;3.40;1.83;;;16.40;93.80;;;;;;5028369;28;22386;-81
2022/07/15 02:41:57;;;;;;;4.47;1.70;;;16.40;94.20;;;;;;5025329;28;20646;-80
2022/07/15 02:44:24;;;;;;;2.73;1.47;;;16.40;94.80;;;;;;5027595;28;20994;-80
2022/07/15 02:46:52;;;;;;;2.40;2.07;;;16.40;94.90;;;;;;5027546;28;20645;-80
2022/07/15 02:49:19;;;;;;;2.83;1.93;;;16.40;95.40;;;;;;5025542;28;20650;-80
2022/07/15 02:51:46;;;;;;;3.03;2.10;;;16.30;96.20;;;;;;5027451;28;20635;-80
2022/07/15 02:54:13;;;;;;;2.30;1.90;;;16.20;96.90;;;;;;5025690;28;20647;-80
2022/07/15 02:56:39;;;;;;;8.00;1.87;;;16.10;97.10;;;;;;5025926;28;20641;-80
2022/07/15 02:59:06;;;;;;;2.73;2.10;;;16.10;97.60;;;;;;5027670;28;20633;-80
2022/07/15 03:01:33;;;;;;;4.10;2.10;;;16.00;99.10;;;;;;5023489;28;20662;-80
2022/07/15 03:04:01;;;;;;;8.43;2.27;;;16.00;98.90;;;;;;5024784;28;20638;-80
2022/07/15 03:06:28;;;;;;;6.00;1.83;;;16.00;99.20;;;;;;5025682;28;21534;-80
2022/07/15 03:08:55;;;;;;;2.20;1.77;;;16.00;99.30;;;;;;5026039;28;20674;-80
2022/07/15 03:11:22;;;;;;;3.07;1.70;;;15.90;99.40;;;;;;5024109;28;20638;-80
2022/07/15 03:13:48;;;;;;;2.77;2.00;;;15.90;99.50;;;;;;5027390;28;20627;-80
2022/07/15 03:16:15;;;;;;;2.20;1.80;;;15.80;99.70;;;;;;5024441;28;20635;-80
2022/07/15 03:18:42;;;;;;;5.73;1.93;;;15.70;99.90;;;;;;5027824;28;20622;-80
2022/07/15 03:21:10;;;;;;;5.80;2.50;;;15.70;99.90;;;;;;5023912;28;20654;-80
2022/07/15 03:23:37;;;;;;;2.30;1.60;;;15.70;99.90;;;;;;5027807;28;20638;-80
2022/07/15 03:26:04;;;;;;;3.33;1.87;;;15.70;99.90;;;;;;5026835;28;21194;-80
2022/07/15 03:28:31;;;;;;;1.80;1.50;;;15.70;99.90;;;;;;5024766;28;20658;-80
2022/07/15 03:30:58;;;;;;;2.40;2.20;;;15.60;99.90;;;;;;5026500;28;20662;-80
2022/07/15 03:33:24;;;;;;;1.90;1.80;;;15.60;99.90;;;;;;5024122;28;20626;-80
2022/07/15 03:35:51;;;;;;;2.27;2.00;;;15.60;99.90;;;;;;5024596;28;20645;-81
2022/07/15 03:38:19;;;;;;;1.63;1.53;;;15.70;99.90;;;;;;5027719;28;21165;-80
2022/07/15 03:40:46;;;;;;;4.07;2.10;;;15.60;99.90;;;;;;5022702;28;20885;-79
2022/07/15 03:43:13;;;;;;;4.73;2.10;;;15.60;99.90;;;;;;5026818;28;20985;-79
2022/07/15 03:45:40;;;;;;;4.37;2.07;;;15.60;99.90;;;;;;5024540;28;21233;-79
2022/07/15 03:48:08;;;;;;;5.83;2.30;;;15.60;99.90;;;;;;5024560;28;20727;-79
2022/07/15 03:50:35;;;;;;;5.93;2.13;;;15.50;99.90;;;;;;5025572;28;20737;-79
2022/07/15 03:53:01;;;;;;;3.80;2.00;;;15.50;99.90;;;;;;5026465;28;20661;-79
2022/07/15 03:55:30;;;;;;;2.57;2.27;;;15.60;99.90;;;;;;5023530;28;20641;-79
2022/07/15 03:57:57;;;;;;;2.30;1.90;;;15.60;99.90;;;;;;5024301;28;20634;-79
2022/07/15 04:00:24;;;;;;;3.97;2.00;;;15.60;99.90;;;;;;5022104;28;20650;-80
2022/07/15 04:02:51;;;;;;;3.37;2.03;;;15.60;99.90;;;;;;5023352;28;20639;-80
2022/07/15 04:05:18;;;;;;;2.00;1.90;;;15.60;99.90;;;;;;5026351;28;20630;-80
2022/07/15 04:07:44;;;;;;;2.30;1.90;;;15.60;99.90;;;;;;5024246;28;20663;-79
2022/07/15 04:10:11;;;;;;;1.73;1.30;;;15.60;99.90;;;;;;5026477;28;20650;-79
2022/07/15 04:12:41;;;;;;;3.60;1.80;;;15.70;99.90;;;;;;5027797;28;20641;-79
2022/07/15 04:15:09;;;;;;;5.90;2.17;;;15.70;99.90;;;;;;5025924;28;20633;-79
2022/07/15 04:17:36;;;;;;;2.53;1.80;;;15.70;99.90;;;;;;5018985;28;20648;-79
2022/07/15 04:20:03;;;;;;;1.50;1.40;;;15.70;99.90;;;;;;5025640;28;20650;-79
2022/07/15 04:22:30;;;;;;;2.97;2.33;;;15.70;99.90;;;;;;5024100;28;20644;-79
2022/07/15 04:24:57;;;;;;;3.90;2.10;;;15.60;99.90;;;;;;5026650;28;20637;-79
2022/07/15 04:27:24;;;;;;;6.83;2.37;;;15.60;99.90;;;;;;5026383;28;20641;-79
2022/07/15 04:29:52;;;;;;;3.40;1.53;;;15.50;99.90;;;;;;5026077;28;20776;-79
2022/07/15 04:32:19;;;;;;;4.40;1.70;;;15.50;99.90;;;;;;5024850;28;20629;-79
2022/07/15 04:34:45;;;;;;;2.10;1.50;;;15.60;99.90;;;;;;5023391;28;20641;-80
2022/07/15 04:37:12;;;;;;;5.97;2.00;;;15.70;99.90;;;;;;5028843;28;20634;-81
2022/07/15 04:39:39;;;;;;;2.40;1.70;;;15.70;99.90;;;;;;5028999;28;20661;-81
2022/07/15 04:42:06;;;;;;;4.33;2.20;;;15.80;99.90;;;;;;5025663;28;20698;-81
2022/07/15 04:44:33;;;;;;;1.90;1.70;;;15.90;99.90;;;;;;5029239;28;20702;-81
2022/07/15 04:47:02;;;;;;;3.80;1.80;;;16.00;99.90;;;;;;5025408;28;20630;-81
2022/07/15 04:52:13;;;;;;;6.03;2.70;;;16.10;99.90;;;;;;5029499;28;20621;-80
2022/07/15 04:54:40;;;;;;;4.57;2.40;;;16.20;99.90;;;;;;5027228;28;20653;-81
2022/07/15 04:57:07;;;;;;;3.10;2.33;;;16.20;99.90;;;;;;5028233;28;20630;-81
2022/07/15 04:59:34;;;;;;;4.77;2.70;;;16.30;99.90;;;;;;5022656;28;20662;-81
2022/07/15 05:02:02;;;;;;;3.60;2.93;;;16.40;99.90;;;;;;5026318;28;20635;-80
2022/07/15 05:04:29;;;;;;;4.83;2.77;;;16.50;99.90;;;;;;5028490;28;20645;-80
2022/07/15 05:06:56;;;;;;;6.40;3.77;;;16.50;99.90;;;;;;5027379;28;21178;-81
2022/07/15 05:09:23;;;;;;;3.63;2.87;;;16.60;99.90;;;;;;5029373;28;20670;-80
2022/07/15 05:11:50;;;;;;;3.80;3.37;;;16.70;99.90;;;;;;5024867;28;20660;-80
2022/07/15 05:14:17;;;;;;;5.43;3.93;;;16.80;99.90;;;;;;5027429;28;21459;-80
2022/07/15 05:16:44;;;;;;;5.50;4.30;;;16.80;99.90;;;;;;5026743;28;20673;-80
2022/07/15 05:19:12;;;;;;;4.37;3.80;;;17.00;99.90;;;;;;5029326;28;20623;-80
2022/07/15 05:21:38;;;;;;;12.60;3.70;;;17.00;99.90;;;;;;5028643;28;20635;-80
2022/07/15 05:24:06;;;;;;;4.33;3.70;;;17.10;99.90;;;;;;5026764;28;20638;-79
2022/07/15 05:26:33;;;;;;;4.97;3.90;;;17.20;99.90;;;;;;5027041;28;20721;-80
2022/07/15 05:29:00;;;;;;;4.73;3.53;;;17.30;99.90;;;;;;5026724;28;21109;-80
2022/07/15 05:31:27;;;;;;;4.17;3.77;;;17.40;99.90;;;;;;5029014;28;20689;-80
2022/07/15 05:33:54;;;;;;;6.27;3.53;;;17.40;99.90;;;;;;5027144;28;20708;-80
2022/07/15 05:36:22;;;;;;;6.37;2.90;;;17.50;99.90;;;;;;5025750;28;20626;-80
2022/07/15 05:38:49;;;;;;;4.33;2.93;;;17.60;99.90;;;;;;5028592;28;20627;-80
2022/07/15 05:41:16;;;;;;;6.23;3.37;;;17.70;99.90;;;;;;5026199;28;20654;-80
2022/07/15 05:43:42;;;;;;;7.57;3.30;;;17.90;99.90;;;;;;5028260;28;20633;-80
2022/07/15 05:46:10;;;;;;;3.50;2.80;;;17.90;98.30;;;;;;5026494;28;20641;-80
2022/07/15 05:48:39;;;;;;;8.13;2.80;;;18.10;97.90;;;;;;5026633;28;20797;-79
2022/07/15 05:51:06;;;;;;;4.30;2.90;;;18.20;97.60;;;;;;5027713;28;20737;-80
2022/07/15 05:53:34;;;;;;;3.83;2.80;;;18.40;97.40;;;;;;5028623;28;21005;-80
2022/07/15 05:56:01;;;;;;;3.53;2.27;;;18.50;97.00;;;;;;5029323;28;20638;-80
2022/07/15 05:58:28;;;;;;;3.60;2.00;;;18.60;95.80;;;;;;5028974;28;21168;-80
2022/07/15 06:00:55;;;;;;;3.23;2.20;;;18.80;94.70;;;;;;5029235;28;20662;-82
2022/07/15 06:03:21;;;;;;;3.60;2.33;;;18.90;93.70;;;;;;5026109;28;21165;-80
2022/07/15 06:05:49;;;;;;;3.40;2.57;;;19.00;94.00;;;;;;5028595;28;20641;-79
2022/07/15 06:08:15;;;;;;;4.50;2.53;;;19.00;94.50;;;;;;5026792;28;21412;-82
2022/07/15 06:10:44;;;;;;;5.07;3.20;;;19.00;95.20;;;;;;5024201;28;20655;-81
2022/07/15 06:13:11;;;;;;;5.20;2.63;;;19.00;95.50;;;;;;5028215;28;20642;-79
2022/07/15 06:15:39;;;;;;;5.60;2.70;;;19.00;95.90;;;;;;5027133;28;21192;-80
2022/07/15 06:18:06;;;;;;;5.53;2.80;;;19.10;95.80;;;;;;5028975;28;20642;-80
2022/07/15 06:20:33;;;;;;;6.70;3.53;;;19.20;96.10;;;;;;5024713;28;20654;-80
2022/07/15 06:23:00;;;;;;;5.83;3.00;;;19.30;95.70;;;;;;5025973;28;20631;-80
2022/07/15 06:25:26;;;;;;;5.37;2.83;;;19.30;95.50;;;;;;5028265;28;20631;-80
2022/07/15 06:27:55;;;;;;;4.10;3.07;;;19.50;95.20;;;;;;5023697;28;20636;-80
2022/07/15 06:30:21;;;;;;;4.47;3.30;;;19.60;94.80;;;;;;5028509;28;20688;-80
2022/07/15 06:32:48;;;;;;;6.20;3.47;;;19.70;94.60;;;;;;5028148;28;20649;-81
2022/07/15 06:35:15;;;;;;;6.93;3.37;;;19.70;94.60;;;;;;5027435;28;20646;-80
2022/07/15 06:37:42;;;;;;;4.80;3.63;;;19.90;94.60;;;;;;5026036;28;20635;-80
2022/07/15 06:40:10;;;;;;;7.03;3.10;;;19.90;94.20;;;;;;5028075;28;20654;-81
2022/07/15 06:42:38;;;;;;;3.97;3.10;;;20.10;94.10;;;;;;5027011;28;20660;-80
2022/07/15 06:45:07;;;;;;;3.87;3.40;;;20.10;93.50;;;;;;5026858;28;20666;-80
2022/07/15 06:47:34;;;;;;;3.20;2.37;;;20.20;93.40;;;;;;5025716;28;20635;-80
2022/07/15 06:50:02;;;;;;;8.23;3.50;;;20.20;92.80;;;;;;5024847;28;20686;-80
2022/07/15 06:52:28;;;;;;;6.93;2.80;;;20.20;93.10;;;;;;5025934;28;20635;-80
2022/07/15 06:54:55;;;;;;;5.70;3.30;;;20.30;92.70;;;;;;5025276;28;20622;-80
2022/07/15 06:57:22;;;;;;;9.73;3.83;;;20.40;92.00;;;;;;5027281;28;20629;-81
2022/07/15 06:59:49;;;;;;;4.30;2.80;;;20.50;91.90;;;;;;5026500;28;20751;-80
2022/07/15 07:02:17;;;;;;;3.43;2.00;;;20.70;91.10;;;;;;5024463;28;20634;-80
2022/07/15 07:04:44;;;;;;;6.70;2.30;;;20.80;90.70;;;;;;5026835;28;20629;-80
2022/07/15 07:07:11;;;;;;;4.10;1.80;;;20.90;89.50;;;;;;5022964;28;21188;-80
2022/07/15 07:09:38;;;;;;;6.40;2.47;;;21.00;88.50;;;;;;5023750;28;21156;-80
2022/07/15 07:12:06;;;;;;;5.23;2.40;;;21.10;89.10;;;;;;5025120;28;20752;-80
2022/07/15 07:14:33;;;;;;;5.60;2.23;;;21.20;88.80;;;;;;5024707;28;21311;-80
2022/07/15 07:17:00;;;;;;;6.10;2.30;;;21.40;90.10;;;;;;5027266;28;20640;-80
2022/07/15 07:19:28;;;;;;;6.20;2.43;;;21.40;88.80;;;;;;5027085;28;20627;-80
2022/07/15 07:21:55;;;;;;;3.70;2.10;;;21.40;88.00;;;;;;5024099;28;20671;-80
2022/07/15 07:24:22;;;;;;;2.70;1.80;;;21.50;88.00;;;;;;5026937;28;21312;-80
2022/07/15 07:26:48;;;;;;;2.80;2.20;;;21.70;88.60;;;;;;5027418;28;20729;-80
2022/07/15 07:29:22;;;;;;;3.67;2.10;;;21.80;88.00;;;;;;5024204;28;20678;-80
2022/07/15 07:31:52;;;;;;;3.57;1.73;;;21.90;86.90;;;;;;5027155;28;20734;-80
2022/07/15 07:34:19;;;;;;;5.10;2.17;;;22.00;85.70;;;;;;5023739;28;20634;-81
2022/07/15 07:36:48;;;;;;;4.70;1.83;;;22.10;83.80;;;;;;5022229;28;20631;-80
2022/07/15 07:39:15;;;;;;;4.10;2.07;;;22.30;85.00;;;;;;5026775;28;20761;-80
2022/07/15 07:41:42;;;;;;;2.83;1.60;;;22.40;83.40;;;;;;5024324;28;20623;-80
2022/07/15 07:44:09;;;;;;;1.80;1.70;;;22.60;82.80;;;;;;5025478;28;21278;-80
2022/07/15 07:46:36;;;;;;;3.97;1.70;;;22.60;81.60;;;;;;5024563;28;20638;-80
2022/07/15 07:49:03;;;;;;;1.77;1.67;;;22.70;81.60;;;;;;5023795;28;21002;-80
2022/07/15 07:51:30;;;;;;;4.33;1.57;;;22.70;80.10;;;;;;5026087;28;20660;-80
2022/07/15 07:53:58;;;;;;;1.90;1.33;;;22.80;80.30;;;;;;5025841;28;20709;-80
2022/07/15 07:56:25;;;;;;;3.77;2.27;;;22.90;79.50;;;;;;5024823;28;20993;-81
2022/07/15 07:58:52;;;;;;;3.23;1.90;;;22.90;78.30;;;;;;5024309;28;21083;-80
2022/07/15 08:01:19;;;;;;;5.47;1.90;;;23.00;77.90;;;;;;5026266;28;20701;-81
2022/07/15 08:03:46;;;;;;;2.80;2.00;;;23.10;78.10;;;;;;5029934;28;20637;-80
2022/07/15 08:06:13;;;;;;;4.87;1.77;;;23.20;76.70;;;;;;5034541;28;20627;-80
2022/07/15 08:08:40;;;;;;;7.40;1.87;;;23.30;75.90;;;;;;5025429;28;20643;-80
2022/07/15 08:11:08;;;;;;;3.17;1.70;;;23.40;76.30;;;;;;5027069;28;20659;-80
2022/07/15 08:13:35;;;;;;;4.40;1.87;;;23.50;75.40;;;;;;5026398;28;20641;-80
2022/07/15 08:16:02;;;;;;;2.73;1.43;;;23.60;75.10;;;;;;5028313;28;20645;-80
2022/07/15 08:18:29;;;;;;;2.50;1.50;;;23.70;73.00;;;;;;5029904;28;20626;-80
2022/07/15 08:20:56;;;;;;;6.20;2.30;;;23.70;73.00;;;;;;5027844;28;20650;-80
2022/07/15 08:23:23;;;;;;;5.60;1.93;;;23.90;73.20;;;;;;5030409;28;20721;-80
2022/07/15 08:25:51;;;;;;;3.40;2.23;;;23.90;72.40;;;;;;5026568;28;20635;-81
2022/07/15 08:28:20;;;;;;;2.00;1.80;;;23.90;71.50;;;;;;5025796;28;22007;-81
2022/07/15 08:30:48;;;;;;;6.30;1.50;;;23.90;70.60;;;;;;5027776;28;20682;-80
2022/07/15 08:33:15;;;;;;;2.37;1.90;;;24.00;69.40;;;;;;5027844;28;20614;-80
2022/07/15 08:35:42;;;;;;;2.33;1.70;;;24.10;70.80;;;;;;5029292;28;20673;-80
2022/07/15 08:38:09;;;;;;;2.50;1.67;;;24.10;69.60;;;;;;5030482;28;20989;-80
2022/07/15 08:40:37;;;;;;;3.93;2.27;;;24.20;69.30;;;;;;5028118;28;21293;-80
2022/07/15 08:43:07;;;;;;;2.70;1.50;;;24.20;68.50;;;;;;5029198;28;20698;-80
2022/07/15 08:45:36;;;;;;;7.97;1.77;;;24.20;68.40;;;;;;5026737;28;20626;-80
2022/07/15 08:48:04;;;;;;;2.23;1.20;;;24.30;69.50;;;;;;5026406;28;21538;-80
2022/07/15 08:50:34;;;;;;;3.63;2.27;;;24.40;68.70;;;;;;5025714;28;20789;-79
2022/07/15 08:53:01;;;;;;;2.40;1.80;;;24.50;66.90;;;;;;5029921;28;20637;-80
2022/07/15 08:55:28;;;;;;;2.20;1.60;;;24.40;66.20;;;;;;5024473;28;21432;-80
2022/07/15 08:57:55;;;;;;;2.80;1.60;;;24.50;65.70;;;;;;5030417;28;21003;-80
2022/07/15 09:00:28;;;;;;;2.70;1.93;;;24.50;65.30;;;;;;5026707;28;20653;-80
2022/07/15 09:02:57;;;;;;;1.93;1.73;;;24.60;65.60;;;;;;5025340;28;20619;-80
2022/07/15 09:05:27;;;;;;;3.53;1.90;;;24.40;64.20;;;;;;5028795;28;20626;-80
2022/07/15 09:08:00;;;;;;;4.23;2.53;;;24.40;64.50;;;;;;5020466;28;20651;-79
2022/07/15 09:10:51;;;;;;;3.00;2.53;;;24.50;64.90;;;;;;5028116;28;20679;-80
2022/07/15 09:13:30;;;;;;;3.60;2.23;;;24.50;65.60;;;;;;5027864;28;20662;-80
2022/07/15 09:15:58;;;;;;;4.40;1.83;;;24.60;65.10;;;;;;5025692;28;20634;-80
2022/07/15 09:18:28;;;;;;;4.70;2.50;;;24.50;64.40;;;;;;5028710;28;20627;-80
2022/07/15 09:20:55;;;;;;;4.07;1.83;;;24.50;65.10;;;;;;5025223;28;20647;-80
2022/07/15 09:23:29;;;;;;;4.43;1.90;;;24.50;65.90;;;;;;5028301;28;20638;-80
2022/07/15 09:25:58;;;;;;;2.33;1.73;;;24.60;66.20;;;;;;5026754;28;20621;-80
2022/07/15 09:28:37;;;;;;;4.73;1.70;;;24.80;65.60;;;;;;5027076;28;20630;-80
2022/07/15 09:33:51;;;;;;;1.47;1.37;;;24.90;63.80;;;;;;5026683;28;20565;-80
2022/07/15 09:36:20;;;;;;;2.30;2.10;;;25.00;64.50;;;;;;5025912;28;20666;-79
2022/07/15 09:38:49;;;;;;;3.70;2.10;;;25.00;62.50;;;;;;5028581;28;20626;-79
2022/07/15 09:41:28;;;;;;;3.50;2.00;;;24.80;62.10;;;;;;5023550;28;21113;-80
2022/07/15 09:43:59;;;;;;;2.30;1.90;;;24.90;63.50;;;;;;5027038;28;20718;-80
2022/07/15 09:46:29;;;;;;;3.53;2.07;;;25.10;63.80;;;;;;5029138;28;20749;-80
2022/07/15 09:48:57;;;;;;;4.60;1.97;;;25.10;63.70;;;;;;5025127;28;20640;-80
2022/07/15 09:51:24;;;;;;;3.00;1.77;;;25.20;61.20;;;;;;5028407;28;20678;-79
2022/07/15 09:53:52;;;;;;;4.30;2.07;;;25.20;61.90;;;;;;5026709;28;20635;-80
2022/07/15 09:56:25;;;;;;;2.60;2.00;;;25.20;61.80;;;;;;5026660;28;20626;-80
2022/07/15 09:58:54;;;;;;;3.97;2.47;;;25.30;61.00;;;;;;5028735;28;20634;-80
2022/07/15 10:01:21;;;;;;;2.57;2.37;;;25.30;60.60;;;;;;5028789;28;20643;-80
2022/07/15 10:03:49;;;;;;;2.87;2.33;;;25.10;59.90;;;;;;5025956;28;20639;-80
2022/07/15 10:06:19;;;;;;;3.03;1.97;;;25.10;60.70;;;;;;5026669;28;20634;-80
2022/07/15 10:08:48;;;;;;;4.63;2.40;;;25.20;60.60;;;;;;5025317;28;20728;-80
2022/07/15 10:11:16;;;;;;;4.03;2.27;;;25.20;61.40;;;;;;5024546;28;21241;-80
2022/07/15 10:14:10;;;;;;;1.80;1.70;;;25.20;60.80;;;;;;5028344;28;20634;-79
2022/07/15 10:17:00;;;;;;;6.60;3.40;;;25.30;62.40;;;;;;5025639;28;20619;-80
2022/07/15 10:19:39;;;;;;;4.13;1.90;;;25.60;61.50;;;;;;5036674;28;20626;-79
2022/07/15 10:22:20;;;;;;;2.40;2.20;;;25.80;62.10;;;;;;5027076;28;20622;-79
2022/07/15 10:24:58;;;;;;;1.87;1.73;;;25.90;61.90;;;;;;5025210;28;20629;-79
2022/07/15 10:27:39;;;;;;;3.07;1.90;;;26.20;61.50;;;;;;5027854;28;21098;-79
2022/07/15 10:30:08;;;;;;;2.90;2.00;;;26.40;61.20;;;;;;5027272;28;20689;-79
2022/07/15 10:33:13;;;;;;;4.60;2.40;;;26.50;60.40;;;;;;5024919;28;21181;-79
2022/07/15 10:35:43;;;;;;;2.60;1.80;;;26.40;59.50;;;;;;5020389;28;20629;-79
2022/07/15 10:38:28;;;;;;;2.40;2.03;;;26.50;60.40;;;;;;5036994;28;20713;-79
2022/07/15 10:41:05;;;;;;;8.03;2.40;;;26.50;58.60;;;;;;5022169;28;21194;-79
2022/07/15 10:43:49;;;;;;;6.40;2.17;;;26.60;59.00;;;;;;5027038;28;20622;-79
2022/07/15 10:46:30;;;;;;;3.50;2.10;;;26.60;58.80;;;;;;5023306;28;20626;-79
2022/07/15 10:49:29;;;;;;;2.97;2.20;;;26.80;57.70;;;;;;5023541;28;21197;-79
2022/07/15 10:52:11;;;;;;;4.97;2.20;;;26.70;57.20;;;;;;5024586;28;20623;-79
2022/07/15 10:54:45;;;;;;;4.70;2.43;;;26.90;57.90;;;;;;5021912;28;20674;-79
2022/07/15 10:57:15;;;;;;;3.73;2.03;;;27.10;57.30;;;;;;5025318;28;20653;-79
2022/07/15 10:59:50;;;;;;;8.17;4.00;;;27.30;56.70;;;;;;5027593;28;21345;-79
2022/07/15 11:02:18;;;;;;;3.13;2.40;;;27.50;56.90;;;;;;5023337;28;20727;-79
2022/07/15 11:04:46;;;;;;;2.93;2.10;;;27.80;57.00;;;;;;5025877;28;20666;-79
2022/07/15 11:07:30;;;;;;;4.90;2.37;;;28.00;55.80;;;;;;5025090;28;21193;-79
2022/07/15 11:10:19;;;;;;;3.73;2.37;;;28.10;54.80;;;;;;5023208;28;21301;-79
2022/07/15 11:13:05;;;;;;;2.50;2.30;;;28.20;54.40;;;;;;5025877;28;20722;-79
2022/07/15 11:15:33;;;;;;;3.87;2.30;;;28.40;53.80;;;;;;5022233;28;20622;-79
2022/07/15 11:18:00;;;;;;;2.93;2.30;;;28.60;54.20;;;;;;5027239;28;20626;-79
2022/07/15 11:20:31;;;;;;;6.33;2.60;;;28.90;53.20;;;;;;5024346;28;20646;-79
2022/07/15 11:22:59;;;;;;;4.77;2.57;;;28.90;52.90;;;;;;5024986;28;20761;-79
2022/07/15 11:25:30;;;;;;;4.23;2.17;;;29.00;51.90;;;;;;5026697;28;20635;-79
2022/07/15 11:28:04;;;;;;;2.90;2.30;;;29.00;52.80;;;;;;5024964;28;21187;-78
2022/07/15 11:30:34;;;;;;;5.47;2.17;;;29.30;52.90;;;;;;5026498;28;20710;-79
2022/07/15 11:33:03;;;;;;;3.37;2.10;;;29.40;52.00;;;;;;5023888;28;20635;-79
2022/07/15 11:35:31;;;;;;;3.70;2.10;;;29.40;51.20;;;;;;5026122;28;20950;-80
2022/07/15 11:38:00;;;;;;;4.00;2.50;;;29.40;51.20;;;;;;5024337;28;21277;-79
2022/07/15 11:46:00;;;;;;;3.53;2.30;;;29.40;50.80;;;;;;5023468;28;21324;-79
2022/07/15 11:48:27;;;;;;;3.60;2.77;;;29.50;49.90;;;;;;5026634;28;21014;-79
2022/07/15 11:50:56;;;;;;;3.40;2.40;;;29.50;49.40;;;;;;5025443;28;20671;-80
2022/07/15 11:53:24;;;;;;;3.53;2.63;;;29.70;50.30;;;;;;5026846;28;20626;-80
2022/07/15 11:55:55;;;;;;;4.17;2.20;;;30.00;50.50;;;;;;5023062;28;20658;-79
2022/07/15 11:58:27;;;;;;;3.90;2.13;;;30.40;50.60;;;;;;5026578;28;20645;-79
2022/07/15 12:00:53;;;;;;;7.73;4.37;;;30.70;50.10;;;;;;5023914;28;20651;-79
2022/07/15 12:03:20;;;;;;;5.23;4.80;;;31.00;49.10;;;;;;5023630;28;21139;-80
2022/07/15 12:06:01;;;;;;;5.83;2.50;;;31.20;48.90;;;;;;5025684;28;20630;-79
2022/07/15 12:08:38;;;;;;;2.63;2.20;;;31.40;48.00;;;;;;5023789;28;21171;-80
2022/07/15 12:11:14;;;;;;;4.53;2.40;;;31.60;48.00;;;;;;5024331;28;20666;-80
2022/07/15 12:13:43;;;;;;;4.10;2.20;;;32.10;47.40;;;;;;5024679;28;20642;-80
2022/07/15 12:16:10;;;;;;;4.43;3.80;;;32.60;47.60;;;;;;5023750;28;20631;-79
2022/07/15 12:18:37;;;;;;;4.30;3.83;;;32.80;44.50;;;;;;5026776;28;21243;-80
2022/07/15 12:21:04;;;;;;;6.27;5.80;;;32.60;44.50;;;;;;5020843;28;20662;-80
2022/07/15 12:23:31;;;;;;;3.13;2.57;;;32.40;44.20;;;;;;5023587;28;20645;-79
2022/07/15 12:26:05;;;;;;;4.43;2.80;;;32.30;44.70;;;;;;5026187;28;20665;-79
2022/07/15 12:28:34;;;;;;;3.67;2.60;;;32.40;44.60;;;;;;5023742;28;20621;-79
2022/07/15 12:31:01;;;;;;;2.87;1.90;;;32.50;45.50;;;;;;5021051;28;20696;-80
2022/07/15 12:33:29;;;;;;;4.00;2.30;;;32.90;45.70;;;;;;5021727;28;20630;-80
2022/07/15 12:36:14;;;;;;;2.97;2.60;;;33.00;45.20;;;;;;5023128;28;20630;-80
2022/07/15 12:38:42;;;;;;;2.87;2.43;;;33.40;44.50;;;;;;5021319;28;20800;-80
2022/07/15 12:41:11;;;;;;;4.57;3.40;;;33.60;44.10;;;;;;5023513;28;20657;-79
2022/07/15 12:43:50;;;;;;;3.10;2.60;;;33.80;43.40;;;;;;5025217;28;20615;-80
2022/07/15 12:46:19;;;;;;;3.50;2.10;;;33.90;44.00;;;;;;5024675;28;20964;-79
2022/07/15 12:48:47;;;;;;;7.90;2.23;;;33.70;42.70;;;;;;5029872;28;20742;-79
2022/07/15 12:51:15;;;;;;;3.00;2.27;;;33.20;42.30;;;;;;5037948;28;20746;-79
2022/07/15 12:53:42;;;;;;;4.40;2.57;;;33.30;43.80;;;;;;5026304;28;20844;-80
2022/07/15 12:56:09;;;;;;;3.00;2.20;;;33.30;43.40;;;;;;5025054;28;20642;-79
2022/07/15 12:58:37;;;;;;;2.60;1.87;;;33.30;43.70;;;;;;5026521;28;20626;-79
2022/07/15 13:01:08;;;;;;;2.60;2.40;;;33.20;43.60;;;;;;5029029;28;20664;-79
2022/07/15 13:03:37;;;;;;;5.43;2.40;;;33.30;43.50;;;;;;5025503;28;20662;-80
2022/07/15 13:06:04;;;;;;;4.80;2.50;;;33.60;43.70;;;;;;5029474;28;20662;-80
2022/07/15 13:08:33;;;;;;;3.40;2.23;;;33.90;42.30;;;;;;5026781;28;20753;-80